Time;durP1;ratioP1;P1;durP2;ratioP2;P2;SDS_P1;SDS_P2;PMS_P1;PMS_P2;Temp;Humidity;BMP_temperature;BMP_pressure;BME280_temperature;BME280_humidity;BME280_pressure;Samples;Min_cycle;Max_cycle;Signal;HPM_P1;HPM_P2
2021/09/23 00:01:48;;;;;;;5.63;4.33;;;12.70;99.90;;;;;;5111157;28;20173;-60
2021/09/23 00:04:21;;;;;;;6.70;4.97;;;12.70;99.90;;;;;;5110850;28;20169;-61
2021/09/23 00:06:47;;;;;;;6.00;5.40;;;12.80;99.90;;;;;;5111361;28;20151;-61
2021/09/23 00:09:13;;;;;;;4.60;4.20;;;12.80;99.90;;;;;;5111047;28;20785;-61
2021/09/23 00:11:39;;;;;;;5.10;4.37;;;12.70;99.90;;;;;;5110611;28;20456;-61
2021/09/23 00:14:05;;;;;;;4.40;4.00;;;12.70;99.90;;;;;;5110441;28;20229;-61
2021/09/23 00:16:30;;;;;;;6.13;3.97;;;12.60;99.90;;;;;;5110820;28;20206;-61
2021/09/23 00:18:56;;;;;;;6.33;4.77;;;12.50;99.90;;;;;;5110491;28;20516;-61
2021/09/23 00:21:21;;;;;;;8.90;4.83;;;12.50;99.90;;;;;;5110427;28;20168;-61
2021/09/23 00:23:49;;;;;;;4.80;4.43;;;12.40;99.90;;;;;;5110421;28;20179;-61
2021/09/23 00:26:14;;;;;;;5.60;4.70;;;12.50;99.90;;;;;;5110672;28;20530;-61
2021/09/23 00:28:40;;;;;;;4.30;4.00;;;12.50;99.90;;;;;;5109899;28;20430;-60
2021/09/23 00:31:05;;;;;;;5.77;5.17;;;12.40;99.90;;;;;;5110629;28;20648;-61
2021/09/23 00:33:31;;;;;;;5.27;4.77;;;12.50;99.90;;;;;;5110215;28;20684;-61
2021/09/23 00:35:57;;;;;;;4.50;4.10;;;12.50;99.90;;;;;;5110158;28;20169;-61
2021/09/23 00:38:22;;;;;;;4.90;4.50;;;12.40;99.90;;;;;;5106610;28;20185;-61
2021/09/23 00:40:48;;;;;;;5.20;4.73;;;12.40;99.90;;;;;;5089713;28;20158;-60
2021/09/23 00:43:14;;;;;;;3.97;3.57;;;12.50;99.90;;;;;;5089663;28;20637;-59
2021/09/23 00:45:42;;;;;;;4.17;3.77;;;12.50;99.90;;;;;;5089959;28;20178;-61
2021/09/23 00:48:08;;;;;;;4.57;4.17;;;12.50;99.90;;;;;;5089498;28;20215;-61
2021/09/23 00:50:34;;;;;;;4.60;4.20;;;12.50;99.90;;;;;;5089751;28;20404;-59
2021/09/23 00:53:00;;;;;;;5.27;4.77;;;12.50;99.90;;;;;;5088936;28;20200;-59
2021/09/23 00:55:25;;;;;;;5.00;4.60;;;12.50;99.90;;;;;;5089436;28;20627;-59
2021/09/23 00:57:51;;;;;;;6.97;4.47;;;12.50;99.90;;;;;;5089290;28;20488;-60
2021/09/23 01:00:18;;;;;;;4.80;4.40;;;12.40;99.90;;;;;;5089442;28;20239;-60
2021/09/23 01:02:43;;;;;;;7.00;4.90;;;12.30;99.90;;;;;;5090015;28;20183;-61
2021/09/23 01:05:10;;;;;;;5.90;4.20;;;12.20;99.90;;;;;;5080206;28;20408;-61
2021/09/23 01:07:42;;;;;;;5.80;5.20;;;12.00;99.90;;;;;;5075685;28;20420;-60
2021/09/23 01:10:08;;;;;;;9.03;4.90;;;12.00;99.90;;;;;;5075801;28;20779;-61
2021/09/23 01:12:33;;;;;;;5.40;4.50;;;12.00;99.90;;;;;;5075666;28;20444;-60
2021/09/23 01:15:00;;;;;;;5.13;4.43;;;12.00;99.90;;;;;;5094875;28;20176;-61
2021/09/23 01:17:26;;;;;;;5.37;4.50;;;12.00;99.90;;;;;;5095824;28;20215;-61
2021/09/23 01:19:52;;;;;;;6.33;4.80;;;12.00;99.90;;;;;;5095946;28;20403;-60
2021/09/23 01:22:18;;;;;;;6.80;5.00;;;12.00;99.90;;;;;;5095851;28;20454;-59
2021/09/23 01:24:44;;;;;;;5.90;5.30;;;12.00;99.90;;;;;;5095730;28;20561;-59
2021/09/23 01:27:11;;;;;;;7.90;5.33;;;12.00;99.90;;;;;;5095902;28;20189;-60
2021/09/23 01:29:38;;;;;;;7.30;6.17;;;12.10;99.90;;;;;;5095346;28;20435;-61
2021/09/23 01:32:05;;;;;;;5.27;4.77;;;12.10;99.90;;;;;;5095850;28;20396;-61
2021/09/23 01:34:32;;;;;;;5.67;5.17;;;12.10;99.90;;;;;;5095505;28;20400;-61
2021/09/23 01:36:58;;;;;;;12.03;5.33;;;12.00;99.90;;;;;;5095899;28;20395;-61
2021/09/23 01:39:25;;;;;;;5.40;4.47;;;12.10;99.90;;;;;;5095652;28;20530;-61
2021/09/23 01:41:53;;;;;;;4.90;4.40;;;12.20;99.90;;;;;;5094397;28;20170;-61
2021/09/23 01:44:19;;;;;;;5.30;4.80;;;12.20;99.90;;;;;;5095010;28;20415;-61
2021/09/23 01:46:44;;;;;;;6.53;5.37;;;12.20;99.90;;;;;;5095110;28;20396;-61
2021/09/23 01:49:10;;;;;;;5.97;4.30;;;12.20;99.90;;;;;;5094251;28;20252;-61
2021/09/23 01:51:36;;;;;;;5.73;5.23;;;12.20;99.90;;;;;;5095073;28;20177;-60
2021/09/23 01:54:02;;;;;;;5.77;5.17;;;12.10;99.90;;;;;;5094915;28;20457;-61
2021/09/23 01:56:28;;;;;;;6.90;5.03;;;12.10;99.90;;;;;;5095379;28;20406;-62
2021/09/23 01:58:53;;;;;;;6.50;5.13;;;12.10;99.90;;;;;;5082439;28;20455;-61
2021/09/23 02:01:19;;;;;;;7.40;5.07;;;12.00;99.90;;;;;;5075124;28;20168;-61
2021/09/23 02:03:44;;;;;;;5.40;4.90;;;12.00;99.90;;;;;;5074994;28;20238;-61
2021/09/23 02:06:10;;;;;;;5.47;4.97;;;12.00;99.90;;;;;;5074732;28;20554;-60
2021/09/23 02:08:36;;;;;;;5.70;5.00;;;11.90;99.90;;;;;;5074756;28;20555;-61
2021/09/23 02:11:01;;;;;;;4.93;4.53;;;11.90;99.90;;;;;;5074480;28;20217;-60
2021/09/23 02:13:27;;;;;;;5.60;5.00;;;11.80;99.90;;;;;;5074176;28;20194;-61
2021/09/23 02:15:53;;;;;;;7.23;6.37;;;11.80;99.90;;;;;;5073867;28;20178;-59
2021/09/23 02:18:18;;;;;;;6.20;5.60;;;11.80;99.90;;;;;;5074204;28;20221;-61
2021/09/23 02:20:44;;;;;;;6.70;6.10;;;11.80;99.90;;;;;;5074675;28;20173;-61
2021/09/23 02:23:10;;;;;;;5.90;5.10;;;11.80;99.90;;;;;;5074592;28;20170;-61
2021/09/23 02:25:36;;;;;;;6.80;5.63;;;11.80;99.90;;;;;;5074337;28;20162;-61
2021/09/23 02:28:02;;;;;;;8.23;6.07;;;11.70;99.90;;;;;;5074564;28;20444;-58
2021/09/23 02:30:29;;;;;;;7.60;5.47;;;11.60;99.90;;;;;;5074193;28;20405;-59
2021/09/23 02:32:55;;;;;;;7.77;6.23;;;11.60;99.90;;;;;;5074098;28;20641;-59
2021/09/23 02:35:20;;;;;;;8.93;6.57;;;11.60;99.90;;;;;;5074230;28;20920;-56
2021/09/23 02:37:46;;;;;;;9.33;6.70;;;11.40;99.90;;;;;;5074034;28;20463;-58
2021/09/23 02:40:12;;;;;;;8.27;7.47;;;11.50;99.90;;;;;;5074526;28;20620;-60
2021/09/23 02:42:38;;;;;;;6.50;5.90;;;11.60;99.90;;;;;;5073938;28;20224;-58
2021/09/23 02:45:05;;;;;;;7.17;6.50;;;11.60;99.90;;;;;;5074077;28;20416;-59
2021/09/23 02:47:30;;;;;;;6.53;5.93;;;11.60;99.90;;;;;;5078536;28;20581;-60
2021/09/23 02:49:56;;;;;;;6.43;5.77;;;11.60;99.90;;;;;;5094391;28;20409;-60
2021/09/23 02:52:22;;;;;;;6.80;5.60;;;11.60;99.90;;;;;;5093812;28;20179;-59
2021/09/23 02:54:47;;;;;;;6.57;5.80;;;11.60;99.90;;;;;;5094115;28;20157;-60
2021/09/23 02:57:13;;;;;;;6.20;5.60;;;11.60;99.90;;;;;;5093812;28;20190;-60
2021/09/23 02:59:39;;;;;;;6.50;5.50;;;11.60;99.90;;;;;;5074948;28;20639;-60
2021/09/23 03:02:05;;;;;;;6.63;5.83;;;11.70;99.90;;;;;;5084613;28;20412;-61
2021/09/23 03:04:31;;;;;;;7.50;6.70;;;11.60;99.90;;;;;;5093713;28;20170;-60
2021/09/23 03:06:57;;;;;;;8.80;6.27;;;11.60;99.90;;;;;;5093711;28;20202;-60
2021/09/23 03:09:23;;;;;;;5.97;5.43;;;11.60;99.90;;;;;;5094078;28;20265;-60
2021/09/23 03:11:48;;;;;;;6.87;4.97;;;11.60;99.90;;;;;;5093978;28;20484;-60
2021/09/23 03:14:14;;;;;;;9.23;7.13;;;11.60;99.90;;;;;;5093358;28;20204;-60
2021/09/23 03:16:40;;;;;;;7.93;6.03;;;11.60;99.90;;;;;;5093964;28;20246;-60
2021/09/23 03:19:05;;;;;;;7.27;5.93;;;11.60;99.90;;;;;;5093807;28;20189;-60
2021/09/23 03:21:31;;;;;;;6.60;5.77;;;11.50;99.90;;;;;;5090259;28;20520;-60
2021/09/23 03:23:56;;;;;;;6.90;5.80;;;11.40;99.90;;;;;;5073345;28;20169;-60
2021/09/23 03:26:22;;;;;;;7.47;6.70;;;11.30;99.90;;;;;;5073475;28;20184;-59
2021/09/23 03:28:48;;;;;;;7.27;6.10;;;11.40;99.90;;;;;;5072619;28;20186;-60
2021/09/23 03:31:13;;;;;;;6.40;5.80;;;11.50;99.90;;;;;;5073471;28;20215;-60
2021/09/23 03:33:39;;;;;;;10.07;6.73;;;11.50;99.90;;;;;;5073394;28;20190;-60
2021/09/23 03:36:05;;;;;;;8.03;5.97;;;11.40;99.90;;;;;;5073216;28;20212;-60
2021/09/23 03:38:31;;;;;;;9.20;6.40;;;11.30;99.90;;;;;;5073296;28;20186;-60
2021/09/23 03:40:57;;;;;;;6.83;6.20;;;11.30;99.90;;;;;;5073146;28;20458;-61
2021/09/23 03:43:23;;;;;;;6.43;5.63;;;11.30;99.90;;;;;;5073028;28;20182;-60
2021/09/23 03:45:49;;;;;;;7.10;6.13;;;11.30;99.90;;;;;;5078260;28;20170;-60
2021/09/23 03:48:16;;;;;;;8.10;6.93;;;11.40;99.90;;;;;;5093086;28;20424;-60
2021/09/23 03:50:41;;;;;;;7.10;6.37;;;11.40;99.90;;;;;;5100208;22;21000;-55
2021/09/23 03:53:07;;;;;;;7.10;6.40;;;11.30;99.90;;;;;;5052899;28;20441;-59
2021/09/23 03:55:33;;;;;;;8.10;7.30;;;11.30;99.90;;;;;;5052978;28;20163;-60
2021/09/23 03:57:59;;;;;;;8.70;7.10;;;11.30;99.90;;;;;;5053191;28;20204;-60
2021/09/23 04:00:25;;;;;;;9.30;6.40;;;11.30;99.90;;;;;;5053085;28;20452;-60
2021/09/23 04:02:52;;;;;;;7.20;6.00;;;11.30;99.90;;;;;;5053129;28;20179;-60
2021/09/23 04:05:18;;;;;;;7.17;6.37;;;11.40;99.90;;;;;;5052577;28;20424;-60
2021/09/23 04:07:44;;;;;;;7.97;6.50;;;11.40;99.90;;;;;;5053109;28;20413;-60
2021/09/23 04:10:10;;;;;;;8.97;7.70;;;11.30;99.90;;;;;;5053065;28;20260;-60
2021/09/23 04:12:36;;;;;;;7.70;7.00;;;11.20;99.90;;;;;;5052952;28;20967;-60
2021/09/23 04:15:03;;;;;;;9.10;7.30;;;11.30;99.90;;;;;;5053166;28;20401;-59
2021/09/23 04:17:29;;;;;;;7.53;6.27;;;11.20;99.90;;;;;;5052913;28;20393;-60
2021/09/23 04:19:54;;;;;;;6.43;5.83;;;11.20;99.90;;;;;;5052747;28;20845;-60
2021/09/23 04:22:20;;;;;;;7.37;6.30;;;11.30;99.90;;;;;;5051172;28;20201;-60
2021/09/23 04:24:46;;;;;;;8.63;7.73;;;11.20;99.90;;;;;;5052751;28;20547;-60
2021/09/23 04:27:12;;;;;;;8.70;7.87;;;11.10;99.90;;;;;;5052836;28;20402;-58
2021/09/23 04:29:43;;;;;;;7.67;6.70;;;11.10;99.90;;;;;;5053062;28;20171;-59
2021/09/23 04:32:13;;;;;;;8.90;8.07;;;11.10;99.90;;;;;;5052215;28;20409;-60
2021/09/23 04:34:39;;;;;;;7.97;6.73;;;11.00;99.90;;;;;;5047619;28;20497;-60
2021/09/23 04:37:05;;;;;;;8.67;7.53;;;11.00;99.90;;;;;;5036458;28;20403;-59
2021/09/23 04:39:31;;;;;;;10.23;8.40;;;11.00;99.90;;;;;;5033912;28;20431;-60
2021/09/23 04:41:57;;;;;;;8.80;7.37;;;11.00;99.90;;;;;;5036302;28;20418;-59
2021/09/23 04:44:25;;;;;;;8.90;8.00;;;11.00;99.90;;;;;;5036786;28;20412;-60
2021/09/23 04:46:51;;;;;;;7.30;6.57;;;11.10;99.90;;;;;;5036705;28;20199;-59
2021/09/23 04:49:16;;;;;;;10.80;8.40;;;11.10;99.90;;;;;;5052146;28;20985;-60
2021/09/23 04:51:42;;;;;;;9.93;8.27;;;11.10;99.90;;;;;;5055855;28;20444;-59
2021/09/23 04:54:08;;;;;;;9.10;8.10;;;11.10;99.90;;;;;;5056137;28;20187;-60
2021/09/23 04:56:34;;;;;;;10.23;8.70;;;11.10;99.90;;;;;;5056419;28;20659;-58
2021/09/23 04:59:00;;;;;;;13.27;10.53;;;11.10;99.90;;;;;;5056332;28;20180;-60
2021/09/23 05:01:26;;;;;;;8.33;7.53;;;11.00;99.90;;;;;;5056172;28;20922;-60
2021/09/23 05:03:53;;;;;;;10.17;9.13;;;11.00;99.90;;;;;;5054946;28;20411;-59
2021/09/23 05:06:18;;;;;;;10.93;8.63;;;11.00;99.90;;;;;;5055830;28;20167;-60
2021/09/23 05:08:44;;;;;;;11.43;9.60;;;11.00;99.90;;;;;;5055757;28;20416;-60
2021/09/23 05:11:10;;;;;;;9.77;8.77;;;11.10;99.90;;;;;;5055934;28;20531;-59
2021/09/23 05:13:35;;;;;;;10.00;9.10;;;11.10;99.90;;;;;;5055750;28;20294;-60
2021/09/23 05:16:01;;;;;;;11.27;10.07;;;11.00;99.90;;;;;;5055330;28;20163;-60
2021/09/23 05:18:27;;;;;;;9.57;8.23;;;11.00;99.90;;;;;;5055680;28;20703;-59
2021/09/23 05:20:52;;;;;;;11.63;9.50;;;10.90;99.90;;;;;;5055514;28;20228;-59
2021/09/23 05:23:18;;;;;;;9.77;8.77;;;10.80;99.90;;;;;;5055593;28;20636;-59
2021/09/23 05:25:46;;;;;;;11.70;9.97;;;10.80;99.90;;;;;;5055619;28;20167;-55
2021/09/23 05:28:12;;;;;;;12.50;10.97;;;10.90;99.90;;;;;;5055551;28;20412;-57
2021/09/23 05:30:39;;;;;;;14.10;12.17;;;10.90;99.90;;;;;;5055132;28;20429;-59
2021/09/23 05:33:06;;;;;;;10.53;9.37;;;11.00;99.90;;;;;;5056093;28;20444;-58
2021/09/23 05:35:31;;;;;;;13.23;10.00;;;11.00;99.90;;;;;;5055173;28;20396;-58
2021/09/23 05:37:57;;;;;;;12.67;11.37;;;11.00;99.90;;;;;;5055255;28;20409;-58
2021/09/23 05:40:23;;;;;;;9.93;8.93;;;11.00;99.90;;;;;;5055300;28;20550;-58
2021/09/23 05:42:48;;;;;;;11.07;9.97;;;11.10;99.90;;;;;;5055266;28;20172;-60
2021/09/23 05:45:14;;;;;;;12.27;11.00;;;11.10;99.90;;;;;;5055329;28;20649;-59
2021/09/23 05:47:41;;;;;;;12.00;10.70;;;11.10;99.90;;;;;;5054785;28;20545;-60
2021/09/23 05:50:09;;;;;;;14.27;10.67;;;11.20;99.90;;;;;;5055273;28;20233;-59
2021/09/23 05:52:35;;;;;;;13.43;11.30;;;11.20;99.90;;;;;;5054808;28;20966;-59
2021/09/23 05:55:00;;;;;;;12.73;9.77;;;11.20;99.90;;;;;;5055403;28;20401;-59
2021/09/23 05:57:33;;;;;;;11.47;10.27;;;11.30;99.90;;;;;;5055046;28;20453;-58
2021/09/23 05:59:59;;;;;;;10.40;8.87;;;11.30;99.90;;;;;;5053690;28;20168;-58
2021/09/23 06:02:25;;;;;;;10.07;9.07;;;11.30;99.90;;;;;;5055097;28;20409;-58
2021/09/23 06:04:50;;;;;;;11.93;9.23;;;11.30;99.90;;;;;;5054885;28;20416;-59
2021/09/23 06:07:16;;;;;;;11.60;9.90;;;11.30;99.90;;;;;;5054575;28;20204;-59
2021/09/23 06:09:42;;;;;;;13.30;10.40;;;11.40;99.90;;;;;;5055364;28;20164;-58
2021/09/23 06:12:08;;;;;;;10.97;9.83;;;11.50;99.90;;;;;;5054615;28;20274;-59
2021/09/23 06:14:35;;;;;;;12.60;9.50;;;11.40;99.90;;;;;;5054782;28;20449;-60
2021/09/23 06:17:00;;;;;;;12.43;10.33;;;11.50;99.90;;;;;;5054761;28;20785;-58
2021/09/23 06:19:26;;;;;;;12.13;10.17;;;11.60;99.90;;;;;;5054754;28;20401;-59
2021/09/23 06:21:52;;;;;;;10.27;9.23;;;11.60;99.90;;;;;;5054391;28;20256;-60
2021/09/23 06:24:17;;;;;;;12.20;11.00;;;11.60;99.90;;;;;;5054739;28;20257;-58
2021/09/23 06:26:43;;;;;;;11.00;9.90;;;11.60;99.90;;;;;;5054629;28;20257;-60
2021/09/23 06:29:09;;;;;;;10.80;9.70;;;11.60;99.90;;;;;;5054262;28;20675;-59
2021/09/23 06:31:35;;;;;;;11.43;10.27;;;11.70;99.90;;;;;;5054326;28;20567;-58
2021/09/23 06:34:01;;;;;;;12.73;11.33;;;11.70;99.90;;;;;;5054838;28;20263;-59
2021/09/23 06:36:26;;;;;;;17.20;10.47;;;11.80;99.90;;;;;;5054049;28;20401;-59
2021/09/23 06:38:52;;;;;;;13.13;10.57;;;11.80;99.90;;;;;;5054346;28;20163;-57
2021/09/23 06:41:17;;;;;;;10.33;9.33;;;11.90;99.90;;;;;;5054481;28;20251;-59
2021/09/23 06:43:47;;;;;;;10.03;9.00;;;11.90;99.90;;;;;;5054422;28;20178;-58
2021/09/23 06:46:13;;;;;;;10.30;9.20;;;12.00;99.90;;;;;;5054169;28;20244;-59
2021/09/23 06:48:40;;;;;;;9.63;8.73;;;12.10;99.90;;;;;;5051430;28;20512;-59
2021/09/23 06:51:05;;;;;;;10.67;9.57;;;12.20;99.90;;;;;;5038008;28;20466;-58
2021/09/23 06:53:31;;;;;;;9.63;8.10;;;12.30;99.90;;;;;;5032799;28;20456;-59
2021/09/23 06:55:57;;;;;;;9.93;9.03;;;12.40;99.90;;;;;;5034167;28;20175;-59
2021/09/23 06:58:22;;;;;;;12.07;9.47;;;12.50;99.90;;;;;;5034220;28;20579;-57
2021/09/23 07:00:48;;;;;;;10.20;8.80;;;12.70;99.90;;;;;;5034573;28;20222;-58
2021/09/23 07:03:13;;;;;;;14.70;11.53;;;12.80;99.90;;;;;;5053318;28;20167;-56
2021/09/23 07:05:42;;;;;;;10.93;9.83;;;12.80;99.90;;;;;;5053926;28;20170;-59
2021/09/23 07:08:14;;;;;;;11.80;8.70;;;12.90;99.90;;;;;;5053696;28;20174;-59
2021/09/23 07:10:40;;;;;;;11.00;9.07;;;13.00;99.90;;;;;;5053832;28;20435;-59
2021/09/23 07:13:05;;;;;;;10.43;9.40;;;13.10;99.90;;;;;;5054117;28;20482;-59
2021/09/23 07:15:31;;;;;;;9.70;8.80;;;13.30;99.90;;;;;;5053793;28;20407;-58
2021/09/23 07:17:57;;;;;;;9.20;8.40;;;13.50;99.90;;;;;;5054254;28;20643;-60
2021/09/23 07:20:23;;;;;;;10.03;8.73;;;13.60;99.90;;;;;;5054013;28;20196;-56
2021/09/23 07:22:48;;;;;;;9.80;8.80;;;13.80;99.90;;;;;;5052876;28;20510;-60
2021/09/23 07:25:14;;;;;;;12.10;10.60;;;13.90;99.90;;;;;;5054130;28;20263;-57
2021/09/23 07:27:40;;;;;;;12.60;9.90;;;13.90;99.90;;;;;;5043972;28;20172;-58
2021/09/23 07:30:06;;;;;;;10.87;9.70;;;13.90;99.90;;;;;;5051715;28;20252;-58
2021/09/23 07:32:32;;;;;;;12.00;10.40;;;14.10;99.90;;;;;;5052757;28;20216;-58
2021/09/23 07:34:57;;;;;;;12.70;11.33;;;14.10;99.90;;;;;;5053625;28;20809;-58
2021/09/23 07:37:23;;;;;;;11.17;9.90;;;14.20;99.90;;;;;;5053004;28;20516;-57
2021/09/23 07:39:48;;;;;;;13.47;11.50;;;14.30;99.90;;;;;;5053330;28;20266;-58
2021/09/23 07:42:16;;;;;;;15.40;11.27;;;14.40;99.90;;;;;;5053224;28;20176;-58
2021/09/23 07:44:42;;;;;;;11.30;10.03;;;14.30;99.90;;;;;;5053227;28;20185;-61
2021/09/23 07:47:08;;;;;;;13.27;10.90;;;14.40;99.90;;;;;;5053304;28;20783;-58
2021/09/23 07:49:34;;;;;;;13.30;10.87;;;14.60;99.90;;;;;;5053066;28;20470;-59
2021/09/23 07:52:00;;;;;;;12.17;10.20;;;14.70;99.90;;;;;;5052814;28;20229;-58
2021/09/23 07:54:25;;;;;;;16.90;12.27;;;14.80;99.90;;;;;;5052958;28;20743;-58
2021/09/23 07:56:51;;;;;;;13.03;11.60;;;14.80;99.90;;;;;;5053079;28;20403;-59
2021/09/23 07:59:17;;;;;;;12.07;10.77;;;14.80;99.90;;;;;;5050692;28;20174;-59
2021/09/23 08:01:42;;;;;;;12.67;10.20;;;14.90;99.90;;;;;;5046895;28;20270;-59
2021/09/23 08:04:08;;;;;;;12.20;9.83;;;15.10;99.90;;;;;;5053048;28;20236;-57
2021/09/23 08:06:34;;;;;;;11.70;8.50;;;15.30;99.90;;;;;;5053087;28;20649;-57
2021/09/23 08:08:59;;;;;;;10.87;9.33;;;15.30;99.90;;;;;;5051811;28;20181;-59
2021/09/23 08:11:26;;;;;;;12.07;10.17;;;15.40;99.90;;;;;;5051636;28;20624;-58
2021/09/23 08:13:51;;;;;;;11.23;10.07;;;15.50;99.90;;;;;;5052783;28;20763;-59
2021/09/23 08:16:18;;;;;;;14.23;10.40;;;15.60;99.90;;;;;;5057497;28;20492;-58
2021/09/23 08:18:43;;;;;;;10.37;9.27;;;15.70;99.90;;;;;;5055368;28;20178;-58
2021/09/23 08:21:09;;;;;;;13.33;10.53;;;15.80;99.90;;;;;;5056650;28;20485;-59
2021/09/23 08:23:36;;;;;;;9.47;8.40;;;15.80;99.90;;;;;;5057212;28;20166;-58
2021/09/23 08:26:01;;;;;;;11.20;8.43;;;15.80;99.90;;;;;;5057712;28;20183;-59
2021/09/23 08:28:28;;;;;;;9.03;7.87;;;16.10;99.90;;;;;;5056705;28;20410;-57
2021/09/23 08:30:56;;;;;;;9.03;8.13;;;16.20;99.90;;;;;;5056665;28;20600;-57
2021/09/23 08:33:22;;;;;;;11.10;8.40;;;16.30;99.90;;;;;;5057121;28;20494;-59
2021/09/23 08:35:47;;;;;;;10.03;7.37;;;16.10;99.90;;;;;;5056947;28;20487;-58
2021/09/23 08:38:17;;;;;;;11.50;7.40;;;16.10;99.90;;;;;;5056693;28;20507;-58
2021/09/23 08:40:43;;;;;;;7.40;6.70;;;16.10;99.90;;;;;;5056585;28;20185;-58
2021/09/23 08:43:09;;;;;;;9.30;7.60;;;16.30;99.90;;;;;;5057025;28;20781;-59
2021/09/23 08:45:35;;;;;;;10.43;6.60;;;16.40;99.90;;;;;;5056345;28;20896;-59
2021/09/23 08:48:00;;;;;;;14.27;7.80;;;16.60;99.90;;;;;;5055693;28;20998;-59
2021/09/23 08:50:26;;;;;;;8.30;6.97;;;16.70;99.90;;;;;;5056555;28;20213;-60
2021/09/23 08:52:52;;;;;;;11.37;7.20;;;16.60;99.90;;;;;;5055601;28;20190;-59
2021/09/23 08:55:27;;;;;;;9.97;7.37;;;16.70;99.90;;;;;;5056540;28;20167;-57
2021/09/23 08:57:54;;;;;;;9.90;7.10;;;16.90;99.90;;;;;;5056588;28;20165;-59
2021/09/23 09:00:23;;;;;;;9.43;7.30;;;17.20;99.90;;;;;;5056783;28;20754;-58
2021/09/23 09:03:10;;;;;;;8.17;6.43;;;17.30;99.90;;;;;;5056641;28;20769;-57
2021/09/23 09:05:37;;;;;;;6.83;5.73;;;17.40;99.90;;;;;;5055893;28;20411;-59
2021/09/23 09:08:03;;;;;;;8.90;6.87;;;17.50;99.90;;;;;;5055635;28;20488;-58
2021/09/23 09:10:30;;;;;;;6.93;5.53;;;17.50;99.90;;;;;;5056307;28;20456;-59
2021/09/23 09:12:58;;;;;;;7.10;5.43;;;17.50;99.90;;;;;;5056609;28;20228;-59
2021/09/23 09:15:36;;;;;;;5.87;5.10;;;17.80;99.90;;;;;;5056090;28;20420;-60
2021/09/23 09:18:17;;;;;;;4.87;4.10;;;17.90;99.90;;;;;;5055885;28;20412;-59
2021/09/23 09:20:50;;;;;;;6.27;4.90;;;17.90;99.90;;;;;;5056596;28;20420;-59
2021/09/23 09:23:16;;;;;;;5.67;3.97;;;17.80;99.90;;;;;;5055443;28;20921;-59
2021/09/23 09:25:42;;;;;;;6.60;3.30;;;17.90;99.90;;;;;;5055533;28;20437;-59
2021/09/23 09:28:07;;;;;;;3.90;3.50;;;18.00;99.90;;;;;;5056297;28;20612;-60
2021/09/23 09:30:33;;;;;;;4.13;3.20;;;18.10;99.90;;;;;;5055766;28;20261;-60
2021/09/23 09:32:59;;;;;;;4.67;2.73;;;18.10;99.90;;;;;;5055723;28;20198;-59
2021/09/23 09:35:30;;;;;;;6.30;3.17;;;18.20;99.90;;;;;;5055807;28;21010;-58
2021/09/23 09:37:57;;;;;;;3.27;2.97;;;18.40;99.90;;;;;;5055687;28;20546;-60
2021/09/23 09:40:35;;;;;;;4.80;3.07;;;18.60;99.90;;;;;;5055912;28;20930;-59
2021/09/23 09:43:12;;;;;;;3.57;3.23;;;18.50;99.90;;;;;;5055272;28;20823;-58
2021/09/23 09:45:38;;;;;;;3.80;3.40;;;18.60;99.90;;;;;;5055569;28;20397;-59
2021/09/23 09:48:04;;;;;;;3.40;2.67;;;18.60;99.90;;;;;;5055168;28;20407;-58
2021/09/23 09:50:31;;;;;;;4.20;3.07;;;18.80;99.90;;;;;;5080284;22;20242;-63
2021/09/23 09:53:01;;;;;;;5.60;2.90;;;19.00;99.90;;;;;;5052082;28;20479;-63
2021/09/23 09:55:42;;;;;;;4.03;3.20;;;19.10;99.90;;;;;;5054997;28;20447;-62
2021/09/23 09:58:09;;;;;;;3.30;3.00;;;19.20;99.90;;;;;;5054964;28;20783;-62
2021/09/23 10:00:36;;;;;;;3.20;2.90;;;19.30;99.90;;;;;;5054230;28;20397;-62
2021/09/23 10:03:02;;;;;;;3.70;2.77;;;19.40;99.90;;;;;;5069744;28;20920;-62
2021/09/23 10:05:29;;;;;;;3.40;2.43;;;19.40;99.90;;;;;;5054951;28;20777;-62
2021/09/23 10:07:57;;;;;;;5.87;3.23;;;19.60;99.90;;;;;;5054361;28;20429;-62
2021/09/23 10:10:25;;;;;;;3.70;3.40;;;19.80;99.90;;;;;;5055155;28;20405;-62
2021/09/23 10:12:56;;;;;;;3.00;2.70;;;19.80;99.90;;;;;;5054821;28;20449;-62
2021/09/23 10:15:23;;;;;;;3.70;3.10;;;19.80;99.90;;;;;;5054966;28;20385;-62
2021/09/23 10:17:50;;;;;;;3.60;2.97;;;19.90;99.90;;;;;;5054239;28;20398;-63
2021/09/23 10:20:22;;;;;;;4.93;3.50;;;20.10;99.90;;;;;;5054352;28;20421;-62
2021/09/23 10:22:48;;;;;;;3.73;2.73;;;20.00;99.90;;;;;;5053914;28;20421;-62
2021/09/23 10:25:24;;;;;;;3.90;2.53;;;20.00;99.90;;;;;;5054297;28;20397;-62
2021/09/23 10:27:59;;;;;;;3.87;3.03;;;20.20;99.90;;;;;;5054464;28;20429;-61
2021/09/23 10:30:41;;;;;;;2.90;2.40;;;20.30;99.90;;;;;;5054550;28;20377;-62
2021/09/23 10:33:07;;;;;;;2.90;2.70;;;20.40;99.90;;;;;;5054518;28;20448;-62
2021/09/23 10:35:34;;;;;;;3.33;2.80;;;20.70;99.90;;;;;;5054881;28;20411;-62
2021/09/23 10:38:05;;;;;;;3.17;2.87;;;21.30;99.90;;;;;;5053045;28;20749;-62
2021/09/23 10:40:32;;;;;;;2.80;2.40;;;21.60;99.90;;;;;;5054118;28;20775;-62
2021/09/23 10:43:06;;;;;;;5.77;3.20;;;23.00;99.90;;;;;;5054076;28;20463;-62
2021/09/23 10:45:34;;;;;;;2.87;2.57;;;23.90;97.30;;;;;;5052660;28;20397;-62
2021/09/23 10:48:02;;;;;;;4.27;2.77;;;24.70;95.70;;;;;;5034225;28;20415;-62
2021/09/23 10:50:30;;;;;;;3.03;2.20;;;24.40;95.20;;;;;;5034195;28;20809;-62
2021/09/23 10:52:57;;;;;;;5.30;2.60;;;24.50;95.10;;;;;;5042808;28;20442;-62
2021/09/23 10:55:25;;;;;;;2.67;2.47;;;24.00;95.40;;;;;;5025435;28;20410;-62
2021/09/23 10:57:53;;;;;;;2.87;2.50;;;23.50;95.10;;;;;;5034401;28;20485;-62
2021/09/23 11:00:24;;;;;;;2.60;2.40;;;23.80;95.90;;;;;;5034070;28;20414;-62
2021/09/23 11:02:51;;;;;;;3.47;2.43;;;24.50;94.50;;;;;;5033947;28;20872;-62
2021/09/23 11:05:18;;;;;;;2.17;1.70;;;25.10;92.30;;;;;;5033585;28;20417;-62
2021/09/23 11:07:46;;;;;;;4.33;2.50;;;26.50;90.50;;;;;;5033541;28;20414;-62
2021/09/23 11:10:24;;;;;;;2.47;2.27;;;27.00;86.00;;;;;;5033636;28;20772;-60
2021/09/23 11:12:55;;;;;;;2.23;2.03;;;28.70;81.90;;;;;;5033871;28;20469;-61
2021/09/23 11:15:23;;;;;;;4.07;2.27;;;30.10;77.30;;;;;;5033680;28;20410;-61
2021/09/23 11:17:50;;;;;;;3.93;2.30;;;31.70;68.50;;;;;;5033454;28;20921;-61
2021/09/23 11:20:21;;;;;;;4.23;2.03;;;33.00;65.50;;;;;;5033474;28;20398;-62
2021/09/23 11:22:50;;;;;;;2.40;1.93;;;32.70;61.70;;;;;;5049240;28;20486;-61
2021/09/23 11:25:19;;;;;;;2.23;2.03;;;32.40;60.40;;;;;;5053360;28;20492;-62
2021/09/23 11:27:46;;;;;;;3.63;2.17;;;33.20;60.30;;;;;;5053096;28;20413;-62
2021/09/23 11:30:15;;;;;;;2.40;1.67;;;34.00;56.70;;;;;;5053213;28;20433;-62
2021/09/23 11:32:53;;;;;;;2.47;2.00;;;34.50;55.90;;;;;;5052869;28;20518;-60
2021/09/23 11:35:22;;;;;;;2.30;2.10;;;34.00;54.00;;;;;;5053476;28;20455;-62
2021/09/23 11:37:49;;;;;;;2.77;2.10;;;34.60;51.90;;;;;;5052854;28;20393;-61
2021/09/23 11:40:27;;;;;;;1.97;1.80;;;34.50;53.70;;;;;;5053352;28;20401;-62
2021/09/23 11:42:54;;;;;;;2.00;1.80;;;34.10;51.10;;;;;;5053565;28;20472;-62
2021/09/23 11:45:21;;;;;;;2.13;1.97;;;34.00;48.90;;;;;;5053248;28;20501;-63
2021/09/23 11:47:50;;;;;;;2.27;2.07;;;32.20;51.80;;;;;;5053286;28;20833;-61
2021/09/23 11:50:23;;;;;;;2.27;2.07;;;31.00;53.10;;;;;;5053087;28;20401;-62
2021/09/23 11:52:57;;;;;;;2.00;1.73;;;32.40;51.40;;;;;;5052423;28;20874;-61
2021/09/23 11:55:23;;;;;;;2.40;2.20;;;32.90;50.50;;;;;;5052969;28;20389;-61
2021/09/23 11:58:02;;;;;;;1.90;1.80;;;33.90;48.50;;;;;;5053101;28;20735;-61
2021/09/23 12:00:39;;;;;;;2.97;2.10;;;34.50;46.80;;;;;;5052840;28;20234;-62
2021/09/23 12:03:05;;;;;;;2.90;1.97;;;33.40;48.70;;;;;;5052127;28;20405;-62
2021/09/23 12:05:31;;;;;;;2.50;2.30;;;34.60;48.40;;;;;;5052738;28;20492;-62
2021/09/23 12:08:17;;;;;;;2.47;1.93;;;35.00;46.90;;;;;;5052572;28;20423;-62
2021/09/23 12:10:52;;;;;;;2.67;2.47;;;34.10;46.30;;;;;;5052776;28;20411;-61
2021/09/23 12:13:28;;;;;;;2.20;2.10;;;35.00;45.90;;;;;;5052994;28;20444;-62
2021/09/23 12:15:56;;;;;;;2.40;2.20;;;35.20;46.50;;;;;;5053026;28;20385;-61
2021/09/23 12:18:24;;;;;;;2.37;1.93;;;36.30;45.80;;;;;;5053028;28;20496;-62
2021/09/23 12:20:53;;;;;;;1.97;1.60;;;34.40;45.00;;;;;;5052737;28;20417;-61
2021/09/23 12:23:20;;;;;;;2.03;1.93;;;34.40;46.60;;;;;;5052034;28;20401;-62
2021/09/23 12:26:20;;;;;;;2.40;2.20;;;35.40;44.00;;;;;;5052355;28;20408;-62
2021/09/23 12:29:06;;;;;;;2.90;2.70;;;35.40;45.90;;;;;;5030133;28;20426;-62
2021/09/23 12:31:41;;;;;;;2.50;2.03;;;36.00;43.80;;;;;;5052670;28;20424;-63
2021/09/23 12:34:34;;;;;;;2.53;1.90;;;37.60;41.40;;;;;;5052208;28;20502;-62
2021/09/23 12:37:03;;;;;;;2.33;2.10;;;36.50;41.10;;;;;;5049944;28;20436;-62
2021/09/23 12:39:42;;;;;;;2.23;1.97;;;36.10;40.90;;;;;;5052209;28;20392;-63
2021/09/23 12:42:31;;;;;;;3.03;2.20;;;36.10;40.40;;;;;;5052129;28;20790;-62
2021/09/23 12:45:01;;;;;;;2.03;1.77;;;37.20;41.40;;;;;;5052177;28;20424;-62